createdAt,value
2017-06-17T16:48:58.142Z,87.74
2017-06-17T16:49:59.570Z,88.70
2017-06-17T16:51:01.004Z,88.60
2017-06-17T16:52:02.437Z,88.51
2017-06-17T16:53:03.864Z,89.09
2017-06-17T16:54:05.299Z,88.65
2017-06-17T16:55:06.734Z,89.23
2017-06-17T16:56:08.170Z,89.23
2017-06-17T16:57:09.611Z,89.23
2017-06-17T16:58:11.029Z,89.23
2017-06-17T16:59:12.456Z,89.72
2017-06-17T17:00:13.898Z,90.48
2017-06-17T17:01:15.324Z,89.81
2017-06-17T17:02:16.764Z,90.83
2017-06-17T17:03:18.188Z,90.83
2017-06-17T17:04:19.642Z,90.64
2017-06-17T17:05:21.085Z,91.06
2017-06-17T17:06:22.510Z,90.97
2017-06-17T17:07:23.949Z,91.41
2017-06-17T17:08:25.383Z,92.08
2017-06-17T17:09:26.815Z,91.64
2017-06-17T17:10:28.246Z,91.02
2017-06-17T17:11:29.680Z,91.21
2017-06-17T17:12:31.113Z,91.31
2017-06-17T17:13:32.563Z,91.16
2017-06-17T17:14:34.005Z,91.55
2017-06-17T17:15:35.440Z,91.06
2017-06-17T17:16:36.870Z,91.06
2017-06-17T17:17:38.304Z,91.45
2017-06-17T17:18:39.738Z,91.36
2017-06-17T17:19:41.169Z,91.36
2017-06-17T17:20:42.604Z,91.26
2017-06-17T17:21:44.042Z,91.45
2017-06-17T17:22:45.479Z,90.30
2017-06-17T17:23:46.913Z,90.68
2017-06-17T17:24:48.347Z,91.45
2017-06-17T17:25:49.781Z,90.20
2017-06-17T17:26:51.209Z,91.16
2017-06-17T17:27:52.637Z,90.88
2017-06-17T17:28:54.077Z,90.88
2017-06-17T17:29:55.510Z,91.06
2017-06-17T17:30:56.941Z,90.68
2017-06-17T17:31:58.365Z,90.58
2017-06-17T17:32:59.794Z,90.58
2017-06-17T17:34:01.227Z,91.36
2017-06-17T17:35:02.659Z,91.55
2017-06-17T17:36:04.086Z,91.55
2017-06-17T17:37:05.520Z,91.64
2017-06-17T17:38:06.948Z,91.74
2017-06-17T17:39:08.377Z,90.88
2017-06-17T17:40:09.808Z,90.58
2017-06-17T17:41:11.240Z,90.58
2017-06-17T17:42:12.669Z,90.58
2017-06-17T17:43:14.100Z,91.16
2017-06-17T17:44:15.533Z,90.97
2017-06-17T17:45:16.954Z,90.78
2017-06-17T17:46:18.393Z,90.88
2017-06-17T17:47:19.828Z,91.26
2017-06-17T17:48:21.257Z,91.16
2017-06-17T17:49:22.689Z,90.39
2017-06-17T17:50:24.119Z,90.97
2017-06-17T17:51:25.563Z,91.55
2017-06-17T17:52:27.003Z,92.41
2017-06-17T17:53:28.435Z,91.64
2017-06-17T17:54:29.862Z,90.58
2017-06-17T17:55:31.297Z,90.39
2017-06-17T17:56:32.734Z,91.16
2017-06-17T17:57:34.166Z,91.55
2017-06-17T17:58:35.610Z,90.83
2017-06-17T17:59:37.036Z,90.06
2017-06-17T18:00:38.472Z,90.44
2017-06-17T18:01:39.903Z,90.25
2017-06-17T18:02:41.334Z,90.64
2017-06-17T18:03:42.765Z,90.83
2017-06-17T18:04:44.206Z,90.73
2017-06-17T18:05:45.635Z,90.25
2017-06-17T18:06:47.075Z,90.64
2017-06-17T18:07:48.512Z,89.09
2017-06-17T18:08:49.952Z,90.64
2017-06-17T18:09:51.383Z,90.83
2017-06-17T18:10:52.820Z,90.64
2017-06-17T18:11:54.255Z,90.06
2017-06-17T18:12:55.689Z,90.16
2017-06-17T18:13:57.116Z,90.44
2017-06-17T18:14:58.546Z,91.79
2017-06-17T18:15:59.980Z,91.89
2017-06-17T18:17:01.415Z,91.60
2017-06-17T18:18:02.845Z,90.92
2017-06-17T18:19:04.277Z,91.69
2017-06-17T18:20:05.710Z,91.31
2017-06-17T18:21:07.148Z,90.92
2017-06-17T18:22:08.589Z,91.21
2017-06-17T18:23:10.018Z,91.31
2017-06-17T18:24:11.451Z,91.02
2017-06-17T18:25:12.880Z,90.73
2017-06-17T18:26:14.319Z,90.64
2017-06-17T18:27:15.754Z,91.21
2017-06-17T18:28:17.191Z,91.41
2017-06-17T18:29:18.628Z,91.02
2017-06-17T18:30:21.642Z,90.16
2017-06-17T18:31:23.071Z,90.64
2017-06-17T18:32:24.499Z,91.89
2017-06-17T18:33:25.927Z,92.37
2017-06-17T18:34:27.364Z,92.56
2017-06-17T18:35:28.788Z,92.18
2017-06-17T18:36:30.236Z,92.52
2017-06-17T18:37:31.665Z,92.37
2017-06-17T18:38:33.096Z,92.76
2017-06-17T18:39:34.527Z,92.37
2017-06-17T18:40:35.972Z,92.47
2017-06-17T18:41:37.410Z,92.66
2017-06-17T18:42:38.838Z,92.32
2017-06-17T18:43:40.269Z,92.66
2017-06-17T18:44:41.698Z,92.85
2017-06-17T18:45:43.129Z,92.56
2017-06-17T18:46:44.564Z,92.56
2017-06-17T18:47:45.992Z,92.37
2017-06-17T18:48:47.425Z,92.56
2017-06-17T18:49:48.849Z,92.80
2017-06-17T18:50:50.286Z,93.09
2017-06-17T18:51:51.718Z,93.67
2017-06-17T18:52:53.150Z,93.29
2017-06-17T18:53:54.577Z,93.38
2017-06-17T18:54:56.007Z,93.57
2017-06-17T18:55:57.440Z,93.77
2017-06-17T18:56:58.886Z,93.38
2017-06-17T18:58:00.316Z,93.57
2017-06-17T18:59:01.752Z,93.57
2017-06-17T19:00:03.184Z,93.87
2017-06-17T19:01:04.616Z,94.25
2017-06-17T19:02:06.046Z,94.06
2017-06-17T19:03:07.475Z,93.87
2017-06-17T19:04:08.915Z,94.06
2017-06-17T19:05:10.350Z,94.34
2017-06-17T19:06:11.776Z,94.54
2017-06-17T19:07:13.216Z,95.31
2017-06-17T19:08:14.648Z,94.15
2017-06-17T19:09:16.074Z,94.06
2017-06-17T19:10:17.506Z,94.92
2017-06-17T19:11:18.936Z,95.40
2017-06-17T19:12:20.368Z,94.92
2017-06-17T19:13:21.794Z,95.31
2017-06-17T19:14:23.221Z,95.02
2017-06-17T19:15:24.659Z,94.54
2017-06-17T19:16:26.088Z,95.02
2017-06-17T19:17:27.519Z,94.39
2017-06-17T19:18:28.959Z,95.12
2017-06-17T19:19:30.387Z,94.25
2017-06-17T19:20:31.834Z,95.31
2017-06-17T19:21:33.264Z,95.79
2017-06-17T19:22:34.692Z,96.17
2017-06-17T19:23:36.126Z,96.37
2017-06-17T19:24:37.568Z,96.56
2017-06-17T19:25:38.997Z,96.08
2017-06-17T19:26:40.427Z,96.27
2017-06-17T19:27:41.858Z,95.79
2017-06-17T19:28:43.284Z,96.27
2017-06-17T19:29:44.715Z,96.27
2017-06-17T19:30:46.154Z,95.12
2017-06-17T19:31:47.593Z,95.50
2017-06-17T19:32:49.015Z,96.27
2017-06-17T19:33:50.441Z,96.94
2017-06-17T19:34:51.881Z,96.08
2017-06-17T19:35:53.315Z,95.79
2017-06-17T19:36:54.764Z,96.94
2017-06-17T19:37:56.194Z,96.80
2017-06-17T19:38:57.621Z,97.14
2017-06-17T19:39:59.050Z,97.09
2017-06-17T19:41:00.478Z,97.04
2017-06-17T19:42:01.913Z,96.80
2017-06-17T19:43:03.348Z,97.28
2017-06-17T19:44:04.787Z,96.80
2017-06-17T19:45:06.216Z,96.61
2017-06-17T19:46:07.649Z,96.75
2017-06-17T19:47:09.080Z,96.70
2017-06-17T19:48:10.507Z,97.86
2017-06-17T19:49:11.946Z,98.24
2017-06-17T19:50:13.372Z,96.99
2017-06-17T19:51:14.806Z,97.62
2017-06-17T19:52:16.229Z,96.99
2017-06-17T19:53:17.662Z,97.47
2017-06-17T19:54:19.096Z,97.09
2017-06-17T19:55:20.537Z,97.86
2017-06-17T19:56:21.976Z,96.70
2017-06-17T19:57:23.410Z,96.89
2017-06-17T19:58:24.842Z,97.09
2017-06-17T19:59:26.268Z,96.89
2017-06-17T20:00:27.708Z,98.24
2017-06-17T20:01:29.138Z,96.94
2017-06-17T20:02:30.564Z,97.42
2017-06-17T20:03:31.989Z,97.14
2017-06-17T20:04:33.425Z,97.72
2017-06-17T20:05:34.850Z,97.91
2017-06-17T20:06:36.286Z,97.57
2017-06-17T20:07:37.719Z,98.05
2017-06-17T20:08:39.150Z,99.01
2017-06-17T20:09:40.573Z,99.01
2017-06-17T20:10:41.997Z,98.54
2017-06-17T20:11:43.435Z,98.54
2017-06-17T20:12:44.867Z,98.24
2017-06-17T20:13:46.300Z,98.34
2017-06-17T20:14:47.722Z,98.05
2017-06-17T20:15:49.151Z,98.72
2017-06-17T20:16:50.587Z,98.72
2017-06-17T20:17:52.018Z,98.92
2017-06-17T20:18:53.447Z,98.63
2017-06-17T20:19:54.880Z,99.99
2017-06-17T20:20:56.301Z,98.72
2017-06-17T20:21:57.734Z,99.99
2017-06-17T20:22:59.161Z,99.99
2017-06-17T20:24:00.590Z,99.98
2017-06-17T20:25:02.025Z,99.30
2017-06-17T20:26:03.451Z,99.40
2017-06-17T20:27:04.885Z,99.40
2017-06-17T20:28:06.315Z,98.82
2017-06-17T20:29:07.752Z,98.44
2017-06-17T20:30:09.182Z,98.54
2017-06-17T20:31:10.618Z,98.44
2017-06-17T20:32:12.058Z,99.11
2017-06-17T20:33:13.482Z,97.96
2017-06-17T20:34:14.913Z,98.82
2017-06-17T20:35:16.340Z,99.11
2017-06-17T20:36:17.780Z,99.11
2017-06-17T20:37:19.214Z,97.96
2017-06-17T20:38:20.644Z,97.96
2017-06-17T20:39:22.068Z,98.54
2017-06-17T20:40:23.494Z,99.49
2017-06-17T20:41:24.929Z,99.49
2017-06-17T20:42:26.355Z,98.72
2017-06-17T20:43:27.787Z,98.92
2017-06-17T20:44:29.220Z,98.24
2017-06-17T20:45:30.649Z,99.49
2017-06-17T20:46:32.083Z,99.88
2017-06-17T20:47:33.518Z,99.88
2017-06-17T20:48:34.945Z,99.99
2017-06-17T20:49:36.992Z,99.98
2017-06-17T20:50:39.184Z,99.99
2017-06-17T20:51:41.233Z,99.99
2017-06-17T20:52:43.230Z,99.98
2017-06-17T20:53:45.238Z,99.11
2017-06-17T20:54:47.517Z,99.30
2017-06-17T20:55:49.736Z,99.21
2017-06-17T20:56:51.731Z,99.99
2017-06-17T20:57:53.746Z,99.30
2017-06-17T20:58:55.695Z,99.78
2017-06-17T20:59:57.998Z,99.21
2017-06-17T21:01:00.429Z,99.40
2017-06-17T21:02:01.856Z,99.98
2017-06-17T21:03:04.233Z,99.98
2017-06-17T21:04:05.668Z,99.88
2017-06-17T21:05:08.013Z,99.99
2017-06-17T21:06:10.310Z,99.99
2017-06-17T21:07:11.745Z,99.99
2017-06-17T21:08:14.145Z,99.99
2017-06-17T21:09:16.457Z,99.99
2017-06-17T21:10:17.899Z,99.99
2017-06-17T21:11:20.032Z,99.98
2017-06-17T21:12:21.999Z,99.99
2017-06-17T21:13:24.329Z,99.98
2017-06-17T21:14:26.681Z,99.99
2017-06-17T21:15:28.115Z,99.99
2017-06-17T21:16:30.472Z,99.98
2017-06-17T21:17:32.761Z,99.99
2017-06-17T21:18:34.977Z,99.98
2017-06-17T21:19:36.423Z,99.98
2017-06-17T21:20:38.277Z,99.99
2017-06-17T21:21:40.662Z,99.99
2017-06-17T21:22:42.094Z,99.99
2017-06-17T21:23:43.524Z,99.98
2017-06-17T21:24:44.957Z,99.99
2017-06-17T21:25:46.389Z,99.99
2017-06-17T21:26:47.816Z,99.99
2017-06-17T21:27:49.246Z,99.99
2017-06-17T21:28:50.685Z,99.99
2017-06-17T21:29:52.111Z,99.98
2017-06-17T21:30:53.540Z,99.98
2017-06-17T21:31:54.979Z,99.88
2017-06-17T21:32:56.404Z,99.99
2017-06-17T21:33:57.869Z,99.99
2017-06-17T21:34:59.294Z,99.88
2017-06-17T21:36:00.726Z,99.99
2017-06-17T21:37:02.152Z,99.88
2017-06-17T21:38:03.589Z,99.99
2017-06-17T21:39:05.014Z,99.99
2017-06-17T21:40:06.447Z,99.99
2017-06-17T21:41:07.879Z,99.99
2017-06-17T21:42:09.310Z,99.99
2017-06-17T21:43:10.736Z,99.99
2017-06-17T21:44:12.163Z,99.99
2017-06-17T21:45:13.589Z,99.99
2017-06-17T21:46:15.014Z,99.99
2017-06-17T21:47:16.438Z,99.99
2017-06-17T21:48:17.866Z,99.99
2017-06-17T21:49:19.293Z,99.99
2017-06-17T21:50:20.723Z,99.99
2017-06-17T21:51:22.993Z,99.99
2017-06-17T21:52:24.420Z,99.99
2017-06-17T21:53:25.854Z,99.99
2017-06-17T21:54:27.292Z,99.99
2017-06-17T21:55:28.721Z,99.99
2017-06-17T21:56:30.154Z,99.99
2017-06-17T21:57:31.580Z,99.99
2017-06-17T21:58:33.008Z,99.99
2017-06-17T21:59:34.433Z,99.99
2017-06-17T22:00:35.869Z,99.99
2017-06-17T22:01:37.294Z,99.99
2017-06-17T22:02:38.730Z,99.99
2017-06-17T22:03:40.156Z,99.99
2017-06-17T22:04:41.584Z,99.99
2017-06-17T22:05:43.020Z,99.99
2017-06-17T22:06:44.440Z,99.99
2017-06-17T22:07:45.878Z,99.99
2017-06-17T22:08:47.303Z,99.99
2017-06-17T22:09:48.738Z,99.99
2017-06-17T22:10:50.166Z,99.99
2017-06-17T22:11:51.598Z,99.99
2017-06-17T22:12:53.022Z,99.99
2017-06-17T22:13:54.454Z,99.99
2017-06-17T22:14:55.879Z,99.99
2017-06-17T22:15:57.312Z,99.99
2017-06-17T22:16:58.747Z,99.99
2017-06-17T22:18:00.181Z,99.99
2017-06-17T22:19:01.617Z,99.99
2017-06-17T22:20:03.046Z,99.99
2017-06-17T22:21:04.475Z,99.99
2017-06-17T22:22:05.903Z,99.99
2017-06-17T22:23:07.334Z,99.99
2017-06-17T22:24:08.762Z,99.69
2017-06-17T22:25:10.194Z,99.78
2017-06-17T22:26:11.626Z,99.99
2017-06-17T22:27:13.065Z,99.99
2017-06-17T22:28:14.494Z,99.99
2017-06-17T22:29:15.929Z,99.98
2017-06-17T22:30:17.360Z,99.99
2017-06-17T22:31:18.782Z,99.99
2017-06-17T22:32:20.210Z,99.99
2017-06-17T22:33:21.634Z,99.99
2017-06-17T22:34:23.068Z,99.99
2017-06-17T22:35:24.495Z,99.99
2017-06-17T22:36:25.935Z,99.99
2017-06-17T22:37:27.361Z,99.99
2017-06-17T22:38:28.792Z,99.99
2017-06-17T22:39:30.225Z,99.99
2017-06-17T22:40:31.660Z,99.99
2017-06-17T22:41:33.089Z,99.99
2017-06-17T22:42:34.511Z,99.99
2017-06-17T22:43:35.941Z,99.99
2017-06-17T22:44:37.363Z,99.99
2017-06-17T22:45:38.794Z,99.99
2017-06-17T22:46:40.228Z,99.99
2017-06-17T22:47:41.656Z,99.99
2017-06-17T22:48:43.086Z,99.99
2017-06-17T22:49:44.513Z,99.99
2017-06-17T22:50:45.946Z,99.99
2017-06-17T22:51:47.389Z,99.99
2017-06-17T22:52:48.811Z,99.99
2017-06-17T22:53:50.251Z,99.99
2017-06-17T22:54:51.677Z,99.99
2017-06-17T22:55:53.107Z,99.99
2017-06-17T22:56:54.538Z,99.99
2017-06-17T22:57:55.971Z,99.99
2017-06-17T22:58:57.446Z,99.99
2017-06-17T22:59:58.875Z,99.99
2017-06-17T23:01:00.314Z,99.99
2017-06-17T23:02:01.742Z,99.99
2017-06-17T23:03:03.170Z,99.99
2017-06-17T23:04:04.594Z,99.99
2017-06-17T23:05:06.026Z,99.99
2017-06-17T23:06:07.450Z,99.99
2017-06-17T23:07:08.897Z,99.99
2017-06-17T23:08:10.319Z,99.99
2017-06-17T23:09:11.754Z,99.99
2017-06-17T23:10:13.190Z,99.99
2017-06-17T23:11:14.621Z,99.99
2017-06-17T23:12:16.056Z,99.99
2017-06-17T23:13:17.484Z,99.99
2017-06-17T23:14:18.915Z,99.99
2017-06-17T23:15:20.348Z,99.99
2017-06-17T23:16:21.774Z,99.99
2017-06-17T23:17:23.206Z,99.99
2017-06-17T23:18:24.639Z,99.99
2017-06-17T23:19:26.065Z,99.99
2017-06-17T23:20:27.508Z,99.99
2017-06-17T23:21:28.938Z,99.99
2017-06-17T23:22:30.368Z,99.99
2017-06-17T23:23:31.796Z,99.99
2017-06-17T23:24:33.224Z,99.99
2017-06-17T23:25:34.656Z,99.99
2017-06-17T23:26:36.081Z,99.99
2017-06-17T23:27:37.512Z,99.99
2017-06-17T23:28:38.940Z,99.99
2017-06-17T23:29:40.363Z,99.99
2017-06-17T23:30:41.796Z,99.99
2017-06-17T23:31:43.228Z,99.99
2017-06-17T23:32:44.653Z,99.99
2017-06-17T23:33:46.095Z,99.99
2017-06-17T23:34:47.524Z,99.99
2017-06-17T23:35:48.952Z,99.99
2017-06-17T23:36:50.382Z,99.99
2017-06-17T23:37:51.819Z,99.99
2017-06-17T23:38:53.257Z,99.99
2017-06-17T23:39:54.685Z,99.99
2017-06-17T23:40:56.113Z,99.99
2017-06-17T23:41:57.548Z,99.99
2017-06-17T23:42:58.980Z,99.99
2017-06-17T23:44:00.403Z,99.99
2017-06-17T23:45:01.825Z,99.99
2017-06-17T23:46:03.262Z,99.99
2017-06-17T23:47:04.690Z,99.99
2017-06-17T23:48:06.114Z,99.99
2017-06-17T23:49:07.554Z,99.99
2017-06-17T23:50:08.993Z,99.99
2017-06-17T23:51:10.419Z,99.99
2017-06-17T23:52:11.840Z,99.99
2017-06-17T23:53:13.274Z,99.99
2017-06-17T23:54:14.702Z,99.99
2017-06-17T23:55:16.133Z,99.99
2017-06-17T23:56:17.556Z,99.99
2017-06-17T23:57:18.989Z,99.99
2017-06-17T23:58:20.414Z,99.99
2017-06-17T23:59:21.852Z,99.99
